createdAt,value
2023-03-22T05:00:39.477Z,21.00
2023-03-22T05:01:40.239Z,17.00
2023-03-22T05:02:41.450Z,22.00
2023-03-22T05:03:40.158Z,26.00
2023-03-22T05:04:40.164Z,25.00
2023-03-22T05:05:40.162Z,14.00
2023-03-22T05:06:40.125Z,24.00
2023-03-22T05:07:40.125Z,25.00
2023-03-22T05:08:40.120Z,34.00
2023-03-22T05:09:40.105Z,35.00
2023-03-22T05:10:40.466Z,42.00
2023-03-22T05:11:40.090Z,51.00
2023-03-22T05:12:40.066Z,55.00
2023-03-22T05:13:40.066Z,63.00
2023-03-22T05:14:40.100Z,66.00
2023-03-22T05:15:40.105Z,70.00
2023-03-22T05:16:40.030Z,76.00
2023-03-22T05:17:40.045Z,90.00
2023-03-22T05:18:40.009Z,105.00
2023-03-22T05:19:40.009Z,104.00
2023-03-22T05:20:40.229Z,109.00
2023-03-22T05:21:39.974Z,117.00
2023-03-22T05:22:39.959Z,124.00
2023-03-22T05:23:40.012Z,124.00
2023-03-22T05:24:39.936Z,130.00
2023-03-22T05:25:39.943Z,127.00
2023-03-22T05:26:39.924Z,130.00
2023-03-22T05:27:39.908Z,135.00
2023-03-22T05:28:39.898Z,136.00
2023-03-22T05:29:39.911Z,156.00
2023-03-22T05:30:40.046Z,153.00
2023-03-22T05:31:39.878Z,156.00
2023-03-22T05:32:39.889Z,148.00
2023-03-22T05:33:39.855Z,147.00
2023-03-22T05:34:39.843Z,145.00
2023-03-22T05:35:39.902Z,143.00
2023-03-22T05:36:39.814Z,150.00
2023-03-22T05:37:39.807Z,162.00
2023-03-22T05:38:39.787Z,168.00
2023-03-22T05:39:39.790Z,174.00
2023-03-22T05:40:40.053Z,180.00
2023-03-22T05:41:39.771Z,189.00
2023-03-22T05:42:39.753Z,197.00
2023-03-22T05:43:39.743Z,211.00
2023-03-22T05:44:39.757Z,224.00
2023-03-22T05:45:39.722Z,240.00
2023-03-22T05:46:39.757Z,258.00
2023-03-22T05:47:39.692Z,277.00
2023-03-22T05:48:39.696Z,303.00
2023-03-22T05:49:39.703Z,328.00
2023-03-22T05:50:39.885Z,349.00
2023-03-22T05:51:39.702Z,367.00
2023-03-22T05:52:39.642Z,386.00
2023-03-22T05:53:39.669Z,393.00
2023-03-22T05:54:39.627Z,384.00
2023-03-22T05:55:39.663Z,374.00
2023-03-22T05:56:39.617Z,373.00
2023-03-22T05:57:39.608Z,379.00
2023-03-22T05:58:39.587Z,390.00
2023-03-22T05:59:39.585Z,403.00
2023-03-22T06:00:39.841Z,430.00
2023-03-22T06:01:39.666Z,442.00
2023-03-22T06:02:39.605Z,459.00
2023-03-22T06:03:39.545Z,472.00
2023-03-22T06:04:39.524Z,487.00
2023-03-22T06:05:39.507Z,510.00
2023-03-22T06:06:39.502Z,531.00
2023-03-22T06:07:39.487Z,547.00
2023-03-22T06:08:39.510Z,550.00
2023-03-22T06:09:39.471Z,567.00
2023-03-22T06:10:39.773Z,575.00
2023-03-22T06:11:39.470Z,586.00
2023-03-22T06:12:39.433Z,593.00
2023-03-22T06:13:39.433Z,603.00
2023-03-22T06:14:39.458Z,613.00
2023-03-22T06:15:39.435Z,618.00
2023-03-22T06:16:39.410Z,631.00
2023-03-22T06:17:39.387Z,640.00
2023-03-22T06:18:39.362Z,653.00
2023-03-22T06:19:39.360Z,678.00
2023-03-22T06:20:39.629Z,703.00
2023-03-22T06:21:39.338Z,715.00
2023-03-22T06:22:39.392Z,736.00
2023-03-22T06:23:39.316Z,761.00
2023-03-22T06:24:39.312Z,782.00
2023-03-22T06:25:39.292Z,798.00
2023-03-22T06:26:40.399Z,810.00
2023-03-22T06:27:39.825Z,827.00
2023-03-22T06:28:40.161Z,840.00
2023-03-22T06:29:41.744Z,850.00
2023-03-22T06:30:39.654Z,850.00
2023-03-22T06:31:39.229Z,862.00
2023-03-22T06:32:39.227Z,872.00
2023-03-22T06:33:39.195Z,886.00
2023-03-22T06:34:39.187Z,903.00
2023-03-22T06:35:39.237Z,918.00
2023-03-22T06:36:39.176Z,937.00
2023-03-22T06:37:39.163Z,949.00
2023-03-22T06:38:39.147Z,962.00
2023-03-22T06:39:39.152Z,1000.00
2023-03-22T06:40:39.441Z,1017.00
2023-03-22T06:41:39.140Z,1036.00
2023-03-22T06:42:39.223Z,1057.00
2023-03-22T06:43:39.097Z,1071.00
2023-03-22T06:44:39.065Z,1091.00
2023-03-22T06:45:39.104Z,1114.00
2023-03-22T06:46:39.055Z,1137.00
2023-03-22T06:47:39.063Z,1146.00
2023-03-22T06:48:39.028Z,1151.00
2023-03-22T06:49:39.049Z,1159.00
2023-03-22T06:50:39.678Z,1175.00
2023-03-22T06:51:39.009Z,1185.00
2023-03-22T06:52:38.985Z,1212.00
2023-03-22T06:53:38.980Z,1236.00
2023-03-22T06:54:38.961Z,1262.00
2023-03-22T06:55:38.961Z,1297.00
2023-03-22T06:56:38.944Z,1323.00
2023-03-22T06:57:38.955Z,1345.00
2023-03-22T06:58:38.913Z,1372.00
2023-03-22T06:59:38.941Z,1396.00
2023-03-22T07:00:39.339Z,1407.00
2023-03-22T07:01:38.966Z,1425.00
2023-03-22T07:02:38.891Z,1451.00
2023-03-22T07:03:38.874Z,1470.00
2023-03-22T07:04:38.950Z,1494.00
2023-03-22T07:05:38.973Z,1508.00
2023-03-22T07:06:38.833Z,1529.00
2023-03-22T07:07:38.825Z,1530.00
2023-03-22T07:08:38.835Z,1546.00
2023-03-22T07:09:38.817Z,1575.00
2023-03-22T07:10:39.185Z,1592.00
2023-03-22T07:11:38.794Z,1613.00
2023-03-22T07:12:38.803Z,1655.00
2023-03-22T07:13:38.759Z,1694.00
2023-03-22T07:14:38.759Z,1741.00
2023-03-22T07:15:38.817Z,1793.00
2023-03-22T07:16:38.726Z,1829.00
2023-03-22T07:17:38.728Z,1886.00
2023-03-22T07:18:38.737Z,1944.00
2023-03-22T07:19:38.716Z,1987.00
2023-03-22T07:20:39.169Z,2043.00
2023-03-22T07:21:38.683Z,2103.00
2023-03-22T07:22:38.680Z,2153.00
2023-03-22T07:23:38.670Z,2193.00
2023-03-22T07:24:44.753Z,2243.00
2023-03-22T07:25:38.652Z,2302.00
2023-03-22T07:26:38.634Z,2349.00
2023-03-22T07:27:38.624Z,2416.00
2023-03-22T07:28:38.733Z,2510.00
2023-03-22T07:29:38.712Z,2589.00
2023-03-22T07:30:39.084Z,2619.00
2023-03-22T07:31:38.582Z,2654.00
2023-03-22T07:32:38.643Z,2716.00
2023-03-22T07:33:38.577Z,2770.00
2023-03-22T07:34:38.534Z,2819.00
2023-03-22T07:35:38.604Z,2885.00
2023-03-22T07:36:38.526Z,2936.00
2023-03-22T07:37:38.585Z,3028.00
2023-03-22T07:38:38.499Z,3102.00
2023-03-22T07:39:38.768Z,3172.00
2023-03-22T07:40:38.974Z,3253.00
2023-03-22T07:41:38.474Z,3379.00
2023-03-22T07:42:38.450Z,3447.00
2023-03-22T07:43:52.629Z,3618.00
2023-03-22T07:44:38.476Z,3734.00
2023-03-22T07:45:38.428Z,3794.00
2023-03-22T07:46:38.562Z,3900.00
2023-03-22T07:47:41.385Z,3968.00
2023-03-22T07:48:38.443Z,3879.00
2023-03-22T07:49:38.465Z,4028.00
2023-03-22T07:50:38.794Z,4258.00
2023-03-22T07:51:38.458Z,4342.00
2023-03-22T07:52:38.340Z,4443.00
2023-03-22T07:53:38.364Z,4505.00
2023-03-22T07:54:38.333Z,4577.00
2023-03-22T07:55:38.320Z,5626.00
2023-03-22T07:56:38.304Z,4925.00
2023-03-22T07:57:38.339Z,3435.00
2023-03-22T07:58:38.375Z,8897.00
2023-03-22T07:59:40.069Z,6183.00
2023-03-22T08:00:38.723Z,6056.00
2023-03-22T08:01:38.325Z,5679.00
2023-03-22T08:02:38.295Z,6941.00
2023-03-22T08:03:38.243Z,5634.00
2023-03-22T08:04:38.226Z,6474.00
2023-03-22T08:05:38.712Z,7732.00
2023-03-22T08:06:38.202Z,7289.00
2023-03-22T08:07:38.185Z,6712.00
2023-03-22T08:08:38.178Z,6804.00
2023-03-22T08:09:38.196Z,6313.00
2023-03-22T08:10:38.556Z,6566.00
2023-03-22T08:11:38.166Z,9088.00
2023-03-22T08:12:38.177Z,7352.00
2023-03-22T08:13:38.175Z,6986.00
2023-03-22T08:14:38.148Z,7868.00
2023-03-22T08:15:38.519Z,7018.00
2023-03-22T08:16:38.132Z,6850.00
2023-03-22T08:17:38.084Z,6593.00
2023-03-22T08:18:38.092Z,6500.00
2023-03-22T08:19:38.054Z,6495.00
2023-03-22T08:20:38.650Z,6605.00
2023-03-22T08:21:38.047Z,6200.00
2023-03-22T08:22:38.356Z,6496.00
2023-03-22T08:23:42.227Z,6272.00
2023-03-22T08:24:38.005Z,6095.00
2023-03-22T08:25:38.035Z,6382.00
2023-03-22T08:26:37.994Z,6311.00
2023-03-22T08:27:38.685Z,6053.00
2023-03-22T08:28:38.021Z,6004.00
2023-03-22T08:29:38.344Z,6015.00
2023-03-22T08:30:38.249Z,5991.00
2023-03-22T08:31:37.954Z,5992.00
2023-03-22T08:32:37.914Z,5913.00
2023-03-22T08:33:37.943Z,5846.00
2023-03-22T08:34:37.910Z,5834.00
2023-03-22T08:35:38.449Z,6015.00
2023-03-22T08:36:37.922Z,6057.00
2023-03-22T08:37:37.877Z,5824.00
2023-03-22T08:38:37.983Z,5664.00
2023-03-22T08:39:37.892Z,5624.00
2023-03-22T08:40:37.992Z,5603.00
2023-03-22T08:41:37.834Z,5577.00
2023-03-22T08:42:37.834Z,5666.00
2023-03-22T08:43:37.873Z,5677.00
2023-03-22T08:44:37.778Z,5885.00
2023-03-22T08:45:38.488Z,5823.00
2023-03-22T08:46:37.833Z,5830.00
2023-03-22T08:47:37.843Z,5848.00
2023-03-22T08:48:37.845Z,5924.00
2023-03-22T08:49:37.739Z,5964.00
2023-03-22T08:50:37.718Z,5961.00
2023-03-22T08:51:37.745Z,5984.00
2023-03-22T08:52:37.703Z,6096.00
2023-03-22T08:53:37.823Z,6205.00
2023-03-22T08:54:38.195Z,6295.00
2023-03-22T08:55:38.113Z,6326.00
2023-03-22T08:56:37.681Z,6426.00
2023-03-22T08:57:38.848Z,6431.00
2023-03-22T08:58:37.665Z,6400.00
2023-03-22T08:59:37.652Z,6406.00
2023-03-22T09:00:48.278Z,6515.00
2023-03-22T09:01:37.805Z,6559.00
2023-03-22T09:02:37.593Z,6625.00
2023-03-22T09:03:37.656Z,6664.00
2023-03-22T09:04:37.640Z,6661.00
2023-03-22T09:05:37.989Z,6651.00
2023-03-22T09:06:37.575Z,6589.00
2023-03-22T09:07:37.590Z,6678.00
2023-03-22T09:08:37.537Z,6758.00
2023-03-22T09:09:37.558Z,6854.00
2023-03-22T09:10:37.535Z,7003.00
2023-03-22T09:11:37.511Z,7130.00
2023-03-22T09:12:37.772Z,7236.00
2023-03-22T09:13:37.699Z,7403.00
2023-03-22T09:14:37.509Z,7414.00
2023-03-22T09:15:37.582Z,7558.00
2023-03-22T09:16:37.642Z,7602.00
2023-03-22T09:17:37.477Z,7660.00
2023-03-22T09:18:37.480Z,7135.00
2023-03-22T09:19:37.443Z,7435.00
2023-03-22T09:20:37.445Z,9253.00
2023-03-22T09:21:37.386Z,5410.00
2023-03-22T09:22:37.364Z,15402.00
2023-03-22T09:23:37.417Z,29941.00
2023-03-22T09:24:37.365Z,31560.00
2023-03-22T09:25:37.326Z,38132.00
2023-03-22T09:26:37.373Z,26039.00
2023-03-22T09:27:37.317Z,71434.00
2023-03-22T09:28:37.428Z,30208.00
2023-03-22T09:29:37.293Z,65466.00
2023-03-22T09:30:37.342Z,24467.00
2023-03-22T09:31:37.346Z,18671.00
2023-03-22T09:32:37.313Z,17695.00
2023-03-22T09:33:37.268Z,15115.00
2023-03-22T09:34:37.281Z,14268.00
2023-03-22T09:35:37.424Z,14257.00
2023-03-22T09:36:37.214Z,13556.00
2023-03-22T09:37:37.219Z,12835.00
2023-03-22T09:38:37.191Z,13696.00
2023-03-22T09:39:37.181Z,15946.00
2023-03-22T09:40:37.172Z,13778.00
2023-03-22T09:41:37.155Z,12104.00
2023-03-22T09:42:37.138Z,11910.00
2023-03-22T09:43:37.225Z,12774.00
2023-03-22T09:44:37.139Z,13314.00
2023-03-22T09:45:37.160Z,14199.00
2023-03-22T09:46:37.230Z,13027.00
2023-03-22T09:47:44.437Z,12610.00
2023-03-22T09:48:37.141Z,12906.00
2023-03-22T09:49:52.309Z,11353.00
2023-03-22T09:50:37.085Z,12002.00
2023-03-22T09:51:37.109Z,13299.00
2023-03-22T09:52:37.038Z,10487.00
2023-03-22T09:53:37.079Z,8927.00
2023-03-22T09:54:37.044Z,8086.00
2023-03-22T09:55:37.402Z,7803.00
2023-03-22T09:56:37.026Z,8824.00
2023-03-22T09:57:36.967Z,12084.00
2023-03-22T09:58:37.066Z,10972.00
2023-03-22T09:59:36.993Z,10780.00
2023-03-22T10:00:37.137Z,12670.00
2023-03-22T10:01:37.327Z,9053.00
2023-03-22T10:02:37.048Z,25491.00
2023-03-22T10:03:36.914Z,17126.00
2023-03-22T10:04:37.263Z,13389.00
2023-03-22T10:05:36.989Z,21362.00
2023-03-22T10:06:36.887Z,18491.00
2023-03-22T10:07:36.865Z,8636.00
2023-03-22T10:08:36.874Z,9499.00
2023-03-22T10:09:36.857Z,32455.00
2023-03-22T10:10:36.833Z,66643.00
2023-03-22T10:11:36.836Z,23819.00
2023-03-22T10:12:36.896Z,15576.00
2023-03-22T10:13:36.829Z,9539.00
2023-03-22T10:14:36.871Z,3446.00
2023-03-22T10:15:36.840Z,18062.00
2023-03-22T10:16:36.887Z,9080.00
2023-03-22T10:17:36.768Z,10123.00
2023-03-22T10:18:36.801Z,12784.00
2023-03-22T10:19:36.744Z,10501.00
2023-03-22T10:20:36.768Z,16156.00
2023-03-22T10:21:36.710Z,22523.00
2023-03-22T10:22:36.702Z,26546.00
2023-03-22T10:23:36.684Z,24050.00
2023-03-22T10:24:36.684Z,24576.00
2023-03-22T10:25:36.739Z,19995.00
2023-03-22T10:26:36.759Z,15585.00
2023-03-22T10:27:36.648Z,16083.00
2023-03-22T10:28:36.641Z,18110.00
2023-03-22T10:29:36.710Z,16690.00
2023-03-22T10:30:36.664Z,10972.00
2023-03-22T10:31:36.741Z,9410.00
2023-03-22T10:32:45.197Z,9481.00
2023-03-22T10:33:36.596Z,10594.00
2023-03-22T10:34:36.604Z,14198.00
2023-03-22T10:35:36.669Z,11633.00
2023-03-22T10:36:36.557Z,14282.00
2023-03-22T10:37:36.560Z,13184.00
2023-03-22T10:38:36.536Z,17102.00
2023-03-22T10:39:38.493Z,10587.00
2023-03-22T10:40:36.521Z,16567.00
2023-03-22T10:41:37.377Z,31629.00
2023-03-22T10:42:36.498Z,32996.00
2023-03-22T10:43:36.601Z,31827.00
2023-03-22T10:44:36.473Z,22929.00
2023-03-22T10:45:36.481Z,18687.00
2023-03-22T10:46:36.478Z,15416.00
2023-03-22T10:47:36.472Z,20261.00
2023-03-22T10:48:36.533Z,16586.00
2023-03-22T10:49:36.417Z,11721.00
2023-03-22T10:50:36.494Z,13844.00
2023-03-22T10:51:36.398Z,11924.00
2023-03-22T10:52:36.421Z,14600.00
2023-03-22T10:53:36.415Z,12886.00
2023-03-22T10:54:36.364Z,12204.00
2023-03-22T10:55:36.351Z,11402.00
2023-03-22T10:56:36.364Z,12415.00
2023-03-22T10:57:36.361Z,11704.00
2023-03-22T10:58:36.356Z,12673.00
2023-03-22T10:59:36.348Z,12153.00
2023-03-22T11:00:40.169Z,14340.00
2023-03-22T11:01:36.409Z,11352.00
2023-03-22T11:02:36.497Z,11036.00
2023-03-22T11:03:36.270Z,10797.00
2023-03-22T11:04:36.262Z,9915.00
2023-03-22T11:05:36.313Z,7567.00
2023-03-22T11:06:36.238Z,7079.00
2023-03-22T11:07:36.218Z,8526.00
2023-03-22T11:08:36.291Z,10225.00
2023-03-22T11:09:36.229Z,14557.00
2023-03-22T11:10:36.203Z,17733.00
2023-03-22T11:11:36.364Z,16641.00
2023-03-22T11:12:37.807Z,11595.00
2023-03-22T11:13:36.190Z,8124.00
2023-03-22T11:14:36.139Z,6720.00
2023-03-22T11:15:36.190Z,11184.00
2023-03-22T11:16:36.444Z,9010.00
2023-03-22T11:17:36.172Z,12008.00
2023-03-22T11:18:36.114Z,13687.00
2023-03-22T11:19:36.094Z,23694.00
2023-03-22T11:20:36.151Z,22761.00
2023-03-22T11:21:36.093Z,38047.00
2023-03-22T11:22:36.107Z,22073.00
2023-03-22T11:23:36.148Z,13168.00
2023-03-22T11:24:36.134Z,9379.00
2023-03-22T11:25:36.052Z,7957.00
2023-03-22T11:26:39.051Z,7123.00
2023-03-22T11:27:36.025Z,6579.00
2023-03-22T11:28:36.022Z,7509.00
2023-03-22T11:29:36.031Z,7962.00
2023-03-22T11:30:35.986Z,6891.00
2023-03-22T11:31:36.338Z,6902.00
2023-03-22T11:32:36.015Z,7539.00
2023-03-22T11:33:35.956Z,7718.00
2023-03-22T11:34:35.966Z,7796.00
2023-03-22T11:35:35.943Z,6545.00
2023-03-22T11:36:35.983Z,6364.00
2023-03-22T11:37:35.936Z,7289.00
2023-03-22T11:38:35.899Z,8474.00
2023-03-22T11:39:35.873Z,9446.00
2023-03-22T11:40:35.917Z,11017.00
2023-03-22T11:41:35.879Z,11139.00
2023-03-22T11:42:35.898Z,12567.00
2023-03-22T11:43:35.900Z,9647.00
2023-03-22T11:44:35.848Z,10734.00
2023-03-22T11:45:35.840Z,16058.00
2023-03-22T11:46:35.899Z,12400.00
2023-03-22T11:47:35.918Z,16675.00
2023-03-22T11:48:35.937Z,15679.00
2023-03-22T11:49:35.776Z,17059.00
2023-03-22T11:50:35.761Z,15667.00
2023-03-22T11:51:35.775Z,13982.00
2023-03-22T11:52:35.773Z,18078.00
2023-03-22T11:53:35.762Z,32260.00
2023-03-22T11:54:35.703Z,23749.00
2023-03-22T11:55:35.731Z,77543.00
2023-03-22T11:56:35.711Z,79401.00
2023-03-22T11:57:35.760Z,76899.00
2023-03-22T11:58:35.764Z,72319.00
2023-03-22T11:59:35.667Z,35175.00
2023-03-22T12:00:35.651Z,20742.00
2023-03-22T12:01:35.624Z,22699.00
2023-03-22T12:02:35.703Z,21023.00
2023-03-22T12:03:38.932Z,72676.00
2023-03-22T12:04:35.671Z,30919.00
2023-03-22T12:05:35.586Z,20692.00
2023-03-22T12:06:35.608Z,77578.00
2023-03-22T12:07:35.612Z,74741.00
2023-03-22T12:08:35.581Z,29111.00
2023-03-22T12:09:35.558Z,33972.00
2023-03-22T12:10:35.548Z,26626.00
2023-03-22T12:11:35.517Z,23718.00
2023-03-22T12:12:35.543Z,72405.00
2023-03-22T12:13:35.517Z,30226.00
2023-03-22T12:14:35.516Z,36956.00
2023-03-22T12:15:35.562Z,27699.00
2023-03-22T12:16:35.556Z,21137.00
2023-03-22T12:17:35.558Z,9848.00
2023-03-22T12:18:35.466Z,15668.00
2023-03-22T12:19:35.443Z,17964.00
2023-03-22T12:20:35.490Z,27333.00
2023-03-22T12:21:35.425Z,19493.00
2023-03-22T12:22:35.414Z,79654.00
2023-03-22T12:23:35.398Z,76982.00
2023-03-22T12:24:35.397Z,73879.00
2023-03-22T12:25:35.402Z,75881.00
2023-03-22T12:26:35.364Z,76011.00
2023-03-22T12:27:35.371Z,72552.00
2023-03-22T12:28:35.338Z,35489.00
2023-03-22T12:29:35.339Z,20218.00
2023-03-22T12:30:35.363Z,17111.00
2023-03-22T12:31:35.352Z,14245.00
2023-03-22T12:32:35.365Z,22936.00
2023-03-22T12:33:35.336Z,26798.00
2023-03-22T12:34:35.308Z,22943.00
2023-03-22T12:35:35.466Z,17121.00
2023-03-22T12:36:35.265Z,22757.00
2023-03-22T12:37:35.334Z,3632.00
2023-03-22T12:38:35.244Z,16187.00
2023-03-22T12:39:35.227Z,16602.00
2023-03-22T12:40:35.225Z,14875.00
2023-03-22T12:41:35.229Z,21718.00
2023-03-22T12:42:40.607Z,78471.00
2023-03-22T12:43:35.201Z,78950.00
2023-03-22T12:44:35.179Z,78775.00
2023-03-22T12:45:35.156Z,78156.00
2023-03-22T12:46:35.241Z,60006.00
2023-03-22T12:47:35.172Z,4965.00
2023-03-22T12:48:35.206Z,79148.00
2023-03-22T12:49:35.126Z,75004.00
2023-03-22T12:50:35.107Z,66013.00
2023-03-22T12:51:35.112Z,7285.00
2023-03-22T12:52:44.790Z,74823.00
2023-03-22T12:53:35.094Z,76766.00
2023-03-22T12:54:35.074Z,59830.00
2023-03-22T12:55:35.094Z,7661.00
2023-03-22T12:56:35.053Z,4756.00
2023-03-22T12:57:35.030Z,60093.00
2023-03-22T12:58:35.039Z,4566.00
2023-03-22T12:59:35.052Z,59523.00
2023-03-22T13:00:35.031Z,8333.00
2023-03-22T13:01:35.040Z,78023.00
2023-03-22T13:02:35.112Z,78690.00
2023-03-22T13:03:35.207Z,77033.00
2023-03-22T13:04:35.001Z,73971.00
2023-03-22T13:05:34.991Z,73224.00
2023-03-22T13:06:34.991Z,29562.00
2023-03-22T13:07:34.924Z,22792.00
2023-03-22T13:08:34.920Z,75201.00
2023-03-22T13:09:34.937Z,70988.00
2023-03-22T13:10:34.976Z,11730.00
2023-03-22T13:11:34.886Z,77267.00
2023-03-22T13:12:34.918Z,73009.00
2023-03-22T13:13:34.860Z,31039.00
2023-03-22T13:14:34.865Z,34500.00
2023-03-22T13:15:41.905Z,25599.00
2023-03-22T13:16:34.920Z,31390.00
2023-03-22T13:17:34.822Z,30030.00
2023-03-22T13:18:34.910Z,7811.00
2023-03-22T13:19:34.829Z,3712.00
2023-03-22T13:20:34.808Z,22147.00
2023-03-22T13:21:34.920Z,11345.00
2023-03-22T13:22:34.764Z,7457.00
2023-03-22T13:23:34.833Z,2418.00
2023-03-22T13:24:34.768Z,15769.00
2023-03-22T13:25:34.737Z,7069.00
2023-03-22T13:26:34.735Z,5343.00
2023-03-22T13:27:34.709Z,2963.00
2023-03-22T13:28:34.724Z,13952.00
2023-03-22T13:29:34.703Z,25794.00
2023-03-22T13:30:34.706Z,18237.00
2023-03-22T13:31:34.989Z,3976.00
2023-03-22T13:32:34.741Z,12603.00
2023-03-22T13:33:34.693Z,76501.00
2023-03-22T13:34:34.718Z,76638.00
2023-03-22T13:35:34.715Z,76466.00
2023-03-22T13:36:34.621Z,77083.00
2023-03-22T13:37:34.629Z,68136.00
2023-03-22T13:38:34.603Z,12509.00
2023-03-22T13:39:34.629Z,77201.00
2023-03-22T13:40:34.566Z,58887.00
2023-03-22T13:41:34.569Z,7013.00
2023-03-22T13:42:34.562Z,4675.00
2023-03-22T13:43:34.575Z,4228.00
2023-03-22T13:44:35.322Z,24665.00
2023-03-22T13:45:34.534Z,25480.00
2023-03-22T13:46:34.537Z,38342.00
2023-03-22T13:47:34.809Z,28606.00
2023-03-22T13:48:36.351Z,32543.00
2023-03-22T13:49:34.510Z,17986.00
2023-03-22T13:50:34.612Z,7612.00
2023-03-22T13:51:34.472Z,5664.00
2023-03-22T13:52:34.471Z,4264.00
2023-03-22T13:53:35.169Z,3809.00
2023-03-22T13:55:48.108Z,9626.00
2023-03-22T13:56:45.947Z,10341.00
2023-03-22T13:57:45.928Z,4190.00
2023-03-22T13:58:46.050Z,15918.00
2023-03-22T13:59:45.967Z,10928.00
2023-03-22T14:00:46.066Z,3124.00
2023-03-22T14:01:45.954Z,4183.00
2023-03-22T14:02:46.066Z,21451.00
2023-03-22T14:03:45.917Z,18653.00
2023-03-22T14:04:45.881Z,12056.00
2023-03-22T14:05:45.844Z,8456.00
2023-03-22T14:06:45.832Z,7307.00
2023-03-22T14:07:45.840Z,7605.00
2023-03-22T14:08:45.821Z,6793.00
2023-03-22T14:09:46.566Z,3369.00
2023-03-22T14:10:45.822Z,10368.00
2023-03-22T14:11:45.840Z,26675.00
2023-03-22T14:12:45.800Z,3846.00
2023-03-22T14:13:45.778Z,20176.00
2023-03-22T14:14:45.775Z,7392.00
2023-03-22T14:15:45.784Z,10849.00
2023-03-22T14:16:45.760Z,3867.00
2023-03-22T14:17:45.838Z,27287.00
2023-03-22T14:18:45.713Z,29114.00
2023-03-22T14:19:45.691Z,34634.00
2023-03-22T14:20:45.791Z,24416.00
2023-03-22T14:21:45.721Z,25180.00
2023-03-22T14:52:31.055Z,10930.00
2023-03-22T14:53:32.078Z,11244.00
2023-03-22T14:54:32.049Z,11774.00
2023-03-22T14:55:32.069Z,6893.00
2023-03-22T14:56:31.977Z,2212.00
2023-03-22T14:57:36.817Z,12130.00
2023-03-22T14:58:31.946Z,16087.00
2023-03-22T14:59:32.009Z,10132.00
2023-03-22T15:00:32.049Z,6888.00
2023-03-22T15:01:31.972Z,6285.00
2023-03-22T15:02:32.040Z,6113.00
2023-03-22T15:03:31.937Z,4239.00
2023-03-22T15:04:31.885Z,3733.00
2023-03-22T15:05:31.876Z,3691.00
2023-03-22T15:06:31.900Z,3605.00
2023-03-22T15:07:31.835Z,3806.00
2023-03-22T15:08:31.827Z,3594.00
2023-03-22T15:09:31.857Z,3329.00
2023-03-22T15:10:31.828Z,3374.00
2023-03-22T15:11:31.817Z,3307.00
2023-03-22T15:12:31.841Z,2970.00
2023-03-22T15:13:31.762Z,2618.00
2023-03-22T15:14:31.764Z,1800.00
2023-03-22T15:15:31.748Z,3466.00
2023-03-22T15:16:31.802Z,3008.00
2023-03-22T15:17:31.765Z,2584.00
2023-03-22T15:18:31.764Z,2608.00
2023-03-22T15:19:31.716Z,2666.00
2023-03-22T15:20:31.705Z,2580.00
2023-03-22T15:21:31.715Z,2380.00
2023-03-22T15:22:31.698Z,2114.00
2023-03-22T15:23:31.656Z,2084.00
2023-03-22T15:24:31.686Z,2425.00
2023-03-22T15:25:31.681Z,2759.00
2023-03-22T15:26:31.635Z,2515.00
2023-03-22T15:27:31.698Z,2265.00
2023-03-22T15:28:31.644Z,2654.00
2023-03-22T15:29:31.594Z,2589.00
2023-03-22T15:30:31.737Z,2116.00
2023-03-22T15:31:31.584Z,2416.00
2023-03-22T15:32:31.667Z,2280.00
2023-03-22T15:33:31.553Z,2309.00
2023-03-22T15:34:31.620Z,2596.00
2023-03-22T15:35:31.530Z,2566.00
2023-03-22T15:36:31.535Z,2658.00
2023-03-22T15:37:31.517Z,2551.00
2023-03-22T15:38:37.710Z,2508.00
2023-03-22T15:39:31.482Z,2532.00
2023-03-22T15:40:31.482Z,2282.00
2023-03-22T15:41:31.477Z,2973.00
2023-03-22T15:42:31.452Z,2691.00
2023-03-22T15:43:31.442Z,2269.00
2023-03-22T15:44:31.435Z,3795.00
2023-03-22T15:45:31.474Z,2679.00
2023-03-22T15:46:31.416Z,3344.00
2023-03-22T15:47:31.467Z,3059.00
2023-03-22T15:48:31.399Z,2981.00
2023-03-22T15:49:31.379Z,2926.00
2023-03-22T15:50:31.372Z,2849.00
2023-03-22T15:51:31.355Z,2804.00
2023-03-22T15:52:31.410Z,2849.00
2023-03-22T15:53:31.344Z,2815.00
2023-03-22T15:54:31.320Z,2773.00
2023-03-22T15:55:32.036Z,2714.00
2023-03-22T15:56:35.070Z,2660.00
2023-03-22T15:57:31.321Z,2608.00
2023-03-22T15:58:31.276Z,2550.00
2023-03-22T15:59:31.299Z,2491.00
2023-03-22T16:00:31.243Z,2493.00
2023-03-22T16:01:31.356Z,2465.00
2023-03-22T16:02:31.229Z,2368.00
2023-03-22T16:03:31.308Z,2265.00
2023-03-22T16:04:31.211Z,2199.00
2023-03-22T16:05:31.213Z,2087.00
2023-03-22T16:06:31.181Z,1951.00
2023-03-22T16:07:31.171Z,1934.00
2023-03-22T16:08:31.168Z,1884.00
2023-03-22T16:09:31.212Z,1814.00
2023-03-22T16:10:31.189Z,1746.00
2023-03-22T16:11:31.144Z,1680.00
2023-03-22T16:12:31.149Z,1629.00
2023-03-22T16:13:31.212Z,1554.00
2023-03-22T16:14:31.159Z,1496.00
2023-03-22T16:15:31.080Z,1452.00
2023-03-22T16:16:31.135Z,1391.00
2023-03-22T16:17:31.119Z,1314.00
2023-03-22T16:18:31.253Z,1233.00
2023-03-22T16:19:31.140Z,1172.00
2023-03-22T16:20:31.109Z,1173.00
2023-03-22T16:21:31.069Z,1164.00
2023-03-22T16:22:31.030Z,1154.00
2023-03-22T16:23:30.987Z,1143.00
2023-03-22T16:24:31.018Z,1105.00
2023-03-22T16:25:30.972Z,1074.00
2023-03-22T16:26:31.006Z,1082.00
2023-03-22T16:27:31.012Z,1087.00
2023-03-22T16:28:30.941Z,1075.00
2023-03-22T16:29:30.931Z,1064.00
2023-03-22T16:30:30.950Z,1050.00
2023-03-22T16:31:30.935Z,1024.00
2023-03-22T16:32:30.923Z,974.00
2023-03-22T16:33:30.874Z,912.00
2023-03-22T16:34:30.926Z,826.00
2023-03-22T16:35:30.916Z,754.00
2023-03-22T16:36:30.906Z,694.00
2023-03-22T16:37:30.829Z,667.00
2023-03-22T16:38:30.885Z,659.00
2023-03-22T16:39:30.828Z,649.00
2023-03-22T16:40:30.810Z,646.00
2023-03-22T16:41:30.793Z,632.00
2023-03-22T16:42:32.508Z,624.00
2023-03-22T16:43:30.775Z,615.00
2023-03-22T16:44:30.797Z,604.00
2023-03-22T16:45:30.785Z,589.00
2023-03-22T16:46:30.814Z,573.00
2023-03-22T16:47:30.736Z,547.00
2023-03-22T16:48:31.677Z,517.00
2023-03-22T16:49:30.757Z,496.00
2023-03-22T16:50:30.705Z,470.00
2023-03-22T16:51:30.746Z,452.00
2023-03-22T16:52:30.686Z,445.00
2023-03-22T16:53:37.775Z,442.00
2023-03-22T16:54:31.476Z,436.00
2023-03-22T16:55:30.704Z,434.00
2023-03-22T16:56:30.645Z,420.00
2023-03-22T16:57:31.191Z,405.00
2023-03-22T16:58:30.744Z,387.00
2023-03-22T16:59:30.745Z,369.00
2023-03-22T17:00:30.654Z,352.00
2023-03-22T17:01:30.897Z,335.00
2023-03-22T17:02:30.792Z,315.00
2023-03-22T17:03:30.826Z,299.00
2023-03-22T17:04:30.723Z,284.00
2023-03-22T17:05:30.667Z,275.00
2023-03-22T17:06:30.589Z,251.00
2023-03-22T17:07:30.641Z,241.00
2023-03-22T17:08:30.662Z,226.00
2023-03-22T17:09:30.499Z,211.00
2023-03-22T17:10:30.662Z,195.00
2023-03-22T17:11:30.783Z,187.00
2023-03-22T17:12:30.517Z,179.00
2023-03-22T17:13:30.526Z,168.00
2023-03-22T17:16:01.651Z,123.00
2023-03-22T17:16:41.591Z,126.00
2023-03-22T17:17:41.573Z,116.00
2023-03-22T17:18:41.648Z,102.00
2023-03-22T17:19:41.466Z,92.00
2023-03-22T17:20:41.982Z,82.00
2023-03-22T17:21:41.509Z,74.00
2023-03-22T17:22:41.461Z,65.00
2023-03-22T17:23:41.787Z,59.00
2023-03-22T17:24:41.365Z,50.00
2023-03-22T17:25:41.352Z,46.00
2023-03-22T17:26:41.644Z,43.00
2023-03-22T17:27:41.352Z,37.00
2023-03-22T17:28:41.593Z,32.00
2023-03-22T17:29:41.371Z,30.00
2023-03-22T17:30:41.543Z,26.00
2023-03-22T17:31:43.282Z,25.00
2023-03-22T17:32:57.852Z,22.00
2023-03-22T17:33:41.251Z,18.00
2023-03-22T17:34:41.252Z,15.00
2023-03-22T17:35:41.238Z,13.00
2023-03-22T17:36:41.300Z,11.00